Terminal Aerodrome Forecast
Issued by NWS

Home | Current Version | Previous Version | Text Only | Print | Product List | Glossary On
Versions: 1 2 3 4 5 6 7 8 9 10 11 12 13 14 15 16 17 18 19 20 21 22 23 24 25 26 27 28 29 30 31 32 33 34 35 36 37 38 39 40 41 42
000
FTUS45 KBOI 261736
TAFTWF
TAF
KTWF 261736Z 2618/2718 07011KT 1/2SM FZFG BKN005
     FM261930 10006KT P6SM SCT015
     FM270600 15006KT 6SM HZ BKN035
      TEMPO 2712/2716 04008KT 3SM BR BKN015=

USA.gov is the U.S. government's official web portal to all federal, state and local government web resources and services.